White Water, California
Current Conditions -  °F | °C
As of 5:53 PM on Friday 24 Oct 2014 (Local Time) from KPSP Reporting Station
Clear Clear  
Wind Chill: 90°   Ceiling: Unl
Heat Index: 90°   Visibility: 10mi
Dew Point: 46°   Wind: 5mph
Humidity: 22%   Direction: 100°E
Pressure: 29.91"   Gusts: NA
Location:  33.92°N, 116.64°W
Report Text: KPSP 250053Z 10004KT 10SM CLR 32/08 A2991 RMK AO2 SLP123 T03220078
Loading
Personal Weather Stations






























Interactive Weather Map
Tropical Storm Tracking
New forecast layout! Learn more

10-Day Weather Forecast

Advertisements
Track Severe Weather on mobile